VKG5LC EKCH-ENCN
Flight info
| Callsign | VKG5LC |
|---|---|
| Flight time | 0h 42m |
| Altitude | 30000 |
| Route | GOLGA DCT LAGUM L621 AMSEV |
| Aircraft | A321/M-SDE3FGHIRWY/LB1 |
Departure
| Time | 2026-05-04 18:49 |
|---|---|
| Airport | Copenhagen Kastrup Airport (EKCH) |
Arrival
| Time | 2026-05-04 19:32 |
|---|---|
| Airport | Kristiansand Airport (ENCN) |
| Time | Latitude | Longitude | Altitude | Speed | Heading |
|---|---|---|---|---|---|
| 2026-05-04 18:11 | 55.62727 | 12.64283 | 19 ft | 0 kts | 303° |
| 2026-05-04 18:14 | 55.62727 | 12.64284 | 17 ft | 0 kts | 303° |
| 2026-05-04 18:37 | 55.62726 | 12.64286 | 17 ft | 2 kts | 303° |
| 2026-05-04 18:37 | 55.62715 | 12.64315 | 17 ft | 4 kts | 313° |
| 2026-05-04 18:37 | 55.62695 | 12.64333 | 21 ft | 4 kts | 9° |
| 2026-05-04 18:37 | 55.62672 | 12.64320 | 19 ft | 4 kts | 21° |
| 2026-05-04 18:38 | 55.62652 | 12.64306 | 17 ft | 3 kts | 21° |
| 2026-05-04 18:38 | 55.62628 | 12.64287 | 17 ft | 4 kts | 32° |
| 2026-05-04 18:38 | 55.62610 | 12.64267 | 17 ft | 4 kts | 33° |
| 2026-05-04 18:38 | 55.62588 | 12.64241 | 19 ft | 4 kts | 33° |
| 2026-05-04 18:39 | 55.62566 | 12.64216 | 20 ft | 4 kts | 36° |
| 2026-05-04 18:39 | 55.62548 | 12.64184 | 20 ft | 4 kts | 68° |
| 2026-05-04 18:39 | 55.62546 | 12.64142 | 21 ft | 4 kts | 112° |
| 2026-05-04 18:39 | 55.62558 | 12.64103 | 19 ft | 4 kts | 123° |
| 2026-05-04 18:40 | 55.62573 | 12.64064 | 19 ft | 3 kts | 123° |
| 2026-05-04 18:40 | 55.62575 | 12.64058 | 20 ft | 0 kts | 123° |
| 2026-05-04 18:42 | 55.62574 | 12.64059 | 19 ft | 1 kts | 123° |
| 2026-05-04 18:42 | 55.62565 | 12.64085 | 20 ft | 3 kts | 123° |
| 2026-05-04 18:42 | 55.62549 | 12.64129 | 19 ft | 6 kts | 123° |
| 2026-05-04 18:43 | 55.62524 | 12.64197 | 18 ft | 7 kts | 123° |
| 2026-05-04 18:43 | 55.62498 | 12.64268 | 17 ft | 8 kts | 122° |
| 2026-05-04 18:43 | 55.62471 | 12.64338 | 17 ft | 5 kts | 128° |
| 2026-05-04 18:43 | 55.62452 | 12.64379 | 17 ft | 3 kts | 129° |
| 2026-05-04 18:44 | 55.62431 | 12.64424 | 17 ft | 6 kts | 129° |
| 2026-05-04 18:44 | 55.62415 | 12.64450 | 17 ft | 2 kts | 145° |
| 2026-05-04 18:44 | 55.62384 | 12.64448 | 17 ft | 4 kts | 193° |
| 2026-05-04 18:44 | 55.62351 | 12.64433 | 17 ft | 6 kts | 195° |
| 2026-05-04 18:45 | 55.62301 | 12.64409 | 17 ft | 9 kts | 195° |
| 2026-05-04 18:45 | 55.62225 | 12.64369 | 15 ft | 14 kts | 200° |
| 2026-05-04 18:45 | 55.62164 | 12.64320 | 16 ft | 9 kts | 205° |
| 2026-05-04 18:45 | 55.62100 | 12.64265 | 18 ft | 12 kts | 205° |
| 2026-05-04 18:46 | 55.62020 | 12.64197 | 17 ft | 10 kts | 206° |
| 2026-05-04 18:46 | 55.61974 | 12.64158 | 17 ft | 8 kts | 205° |
| 2026-05-04 18:46 | 55.61912 | 12.64106 | 17 ft | 11 kts | 205° |
| 2026-05-04 18:46 | 55.61839 | 12.64070 | 17 ft | 10 kts | 178° |
| 2026-05-04 18:47 | 55.61781 | 12.64077 | 17 ft | 5 kts | 177° |
| 2026-05-04 18:47 | 55.61761 | 12.64078 | 18 ft | 0 kts | 177° |
| 2026-05-04 18:48 | 55.61735 | 12.64081 | 20 ft | 6 kts | 176° |
| 2026-05-04 18:48 | 55.61693 | 12.64086 | 19 ft | 6 kts | 176° |
| 2026-05-04 18:48 | 55.61655 | 12.64083 | 21 ft | 7 kts | 191° |
| 2026-05-04 18:48 | 55.61541 | 12.63947 | 19 ft | 42 kts | 220° |
| 2026-05-04 18:49 | 55.61136 | 12.63316 | 21 ft | 110 kts | 221° |
| 2026-05-04 18:49 | 55.60423 | 12.62213 | 19 ft | 160 kts | 221° |
| 2026-05-04 18:49 | 55.59532 | 12.60862 | 405 ft | 169 kts | 223° |
| 2026-05-04 18:49 | 55.58642 | 12.59495 | 1068 ft | 169 kts | 224° |
| 2026-05-04 18:50 | 55.57757 | 12.58122 | 1725 ft | 169 kts | 225° |
| 2026-05-04 18:50 | 55.56877 | 12.56760 | 2244 ft | 169 kts | 225° |
| 2026-05-04 18:50 | 55.56216 | 12.55103 | 2687 ft | 165 kts | 257° |
| 2026-05-04 18:50 | 55.56170 | 12.53111 | 3149 ft | 164 kts | 280° |
| 2026-05-04 18:51 | 55.56354 | 12.51024 | 3341 ft | 182 kts | 279° |
| 2026-05-04 18:51 | 55.56548 | 12.48688 | 3493 ft | 202 kts | 279° |
| 2026-05-04 18:51 | 55.56757 | 12.46104 | 3623 ft | 224 kts | 278° |
| 2026-05-04 18:51 | 55.56988 | 12.43239 | 3869 ft | 246 kts | 278° |
| 2026-05-04 18:52 | 55.57232 | 12.40205 | 4536 ft | 252 kts | 278° |
| 2026-05-04 18:52 | 55.57478 | 12.37133 | 5314 ft | 254 kts | 278° |
| 2026-05-04 18:52 | 55.58025 | 12.34165 | 6062 ft | 258 kts | 299° |
| 2026-05-04 18:52 | 55.59239 | 12.31815 | 6783 ft | 265 kts | 323° |
| 2026-05-04 18:53 | 55.60967 | 12.30560 | 7466 ft | 275 kts | 347° |
| 2026-05-04 18:53 | 55.62873 | 12.30182 | 8169 ft | 278 kts | 349° |
| 2026-05-04 18:53 | 55.64701 | 12.29237 | 8840 ft | 273 kts | 325° |
| 2026-05-04 18:53 | 55.66107 | 12.27041 | 9524 ft | 270 kts | 307° |
| 2026-05-04 18:54 | 55.67299 | 12.24468 | 10126 ft | 275 kts | 305° |
| 2026-05-04 18:54 | 55.68537 | 12.21697 | 10279 ft | 297 kts | 305° |
| 2026-05-04 18:54 | 55.69854 | 12.18717 | 10395 ft | 318 kts | 305° |
| 2026-05-04 18:54 | 55.71252 | 12.15541 | 10651 ft | 333 kts | 305° |
| 2026-05-04 18:55 | 55.72696 | 12.12285 | 11187 ft | 338 kts | 307° |
| 2026-05-04 18:55 | 55.76725 | 12.07757 | 12387 ft | 356 kts | 335° |
| 2026-05-04 18:55 | 55.79054 | 12.06188 | 12988 ft | 359 kts | 335° |
| 2026-05-04 18:56 | 55.81407 | 12.04633 | 13608 ft | 363 kts | 335° |
| 2026-05-04 18:56 | 55.83791 | 12.03063 | 14154 ft | 366 kts | 335° |
| 2026-05-04 18:56 | 55.86185 | 12.01479 | 14700 ft | 369 kts | 335° |
| 2026-05-04 18:56 | 55.88597 | 11.99873 | 15253 ft | 371 kts | 335° |
| 2026-05-04 18:57 | 55.90903 | 11.97873 | 15759 ft | 367 kts | 321° |
| 2026-05-04 18:57 | 55.92821 | 11.94922 | 16270 ft | 366 kts | 313° |
| 2026-05-04 18:57 | 55.94682 | 11.91793 | 16792 ft | 368 kts | 313° |
| 2026-05-04 18:57 | 55.96534 | 11.88660 | 17310 ft | 371 kts | 313° |
| 2026-05-04 18:58 | 55.98409 | 11.85478 | 17816 ft | 374 kts | 313° |
| 2026-05-04 18:58 | 56.00304 | 11.82258 | 18305 ft | 376 kts | 313° |
| 2026-05-04 18:58 | 56.02207 | 11.79033 | 18765 ft | 378 kts | 313° |
| 2026-05-04 18:58 | 56.04128 | 11.75787 | 19203 ft | 381 kts | 313° |
| 2026-05-04 18:59 | 56.06054 | 11.72524 | 19632 ft | 383 kts | 313° |
| 2026-05-04 18:59 | 56.07996 | 11.69231 | 20049 ft | 385 kts | 313° |
| 2026-05-04 18:59 | 56.09947 | 11.65914 | 20453 ft | 388 kts | 313° |
| 2026-05-04 18:59 | 56.11864 | 11.62643 | 20873 ft | 390 kts | 313° |
| 2026-05-04 19:00 | 56.13835 | 11.59281 | 21294 ft | 393 kts | 313° |
| 2026-05-04 19:00 | 56.15821 | 11.55890 | 21688 ft | 395 kts | 313° |
| 2026-05-04 19:00 | 56.17787 | 11.52523 | 22080 ft | 398 kts | 313° |
| 2026-05-04 19:00 | 56.19790 | 11.49082 | 22489 ft | 400 kts | 313° |
| 2026-05-04 19:01 | 56.21809 | 11.45606 | 22886 ft | 403 kts | 313° |
| 2026-05-04 19:01 | 56.23836 | 11.42115 | 23276 ft | 405 kts | 313° |
| 2026-05-04 19:01 | 56.25882 | 11.38590 | 23638 ft | 408 kts | 313° |
| 2026-05-04 19:01 | 56.27934 | 11.35051 | 23959 ft | 410 kts | 313° |
| 2026-05-04 19:02 | 56.30000 | 11.31485 | 24282 ft | 412 kts | 313° |
| 2026-05-04 19:02 | 56.32070 | 11.27904 | 24600 ft | 414 kts | 313° |
| 2026-05-04 19:02 | 56.34151 | 11.24297 | 24982 ft | 415 kts | 313° |
| 2026-05-04 19:02 | 56.36232 | 11.20684 | 25368 ft | 415 kts | 312° |
| 2026-05-04 19:03 | 56.38309 | 11.17066 | 25702 ft | 416 kts | 312° |
| 2026-05-04 19:03 | 56.40393 | 11.13427 | 26021 ft | 418 kts | 312° |
| 2026-05-04 19:03 | 56.42493 | 11.09762 | 26328 ft | 420 kts | 312° |
| 2026-05-04 19:03 | 56.44595 | 11.06089 | 26625 ft | 422 kts | 312° |
| 2026-05-04 19:04 | 56.46718 | 11.02374 | 26917 ft | 424 kts | 312° |
| 2026-05-04 19:04 | 56.48840 | 10.98653 | 27198 ft | 426 kts | 312° |
| 2026-05-04 19:04 | 56.50970 | 10.94914 | 27475 ft | 428 kts | 312° |
| 2026-05-04 19:04 | 56.53104 | 10.91167 | 27751 ft | 430 kts | 312° |
| 2026-05-04 19:05 | 56.55256 | 10.87382 | 28033 ft | 431 kts | 312° |
| 2026-05-04 19:05 | 56.57408 | 10.83585 | 28312 ft | 433 kts | 312° |
| 2026-05-04 19:05 | 56.59574 | 10.79759 | 28593 ft | 435 kts | 312° |
| 2026-05-04 19:05 | 56.61741 | 10.75921 | 28853 ft | 437 kts | 312° |
| 2026-05-04 19:06 | 56.63915 | 10.72062 | 29216 ft | 436 kts | 312° |
| 2026-05-04 19:06 | 56.66076 | 10.68219 | 29632 ft | 435 kts | 311° |
| 2026-05-04 19:06 | 56.68207 | 10.64427 | 29915 ft | 434 kts | 311° |
| 2026-05-04 19:06 | 56.70335 | 10.60639 | 29957 ft | 424 kts | 311° |
| 2026-05-04 19:07 | 56.74505 | 10.53191 | 29968 ft | 418 kts | 311° |
| 2026-05-04 19:07 | 56.78645 | 10.45760 | 29954 ft | 418 kts | 311° |
| 2026-05-04 19:08 | 56.82780 | 10.38310 | 29950 ft | 418 kts | 311° |
| 2026-05-04 19:08 | 56.86916 | 10.30842 | 29959 ft | 418 kts | 311° |
| 2026-05-04 19:09 | 56.91039 | 10.23385 | 29954 ft | 417 kts | 311° |
| 2026-05-04 19:09 | 56.95160 | 10.15909 | 29948 ft | 417 kts | 311° |
| 2026-05-04 19:10 | 56.99262 | 10.08414 | 29971 ft | 416 kts | 311° |
| 2026-05-04 19:10 | 57.03354 | 10.00920 | 29963 ft | 415 kts | 311° |
| 2026-05-04 19:11 | 57.07441 | 9.93428 | 29598 ft | 415 kts | 311° |
| 2026-05-04 19:11 | 57.09488 | 9.89670 | 29313 ft | 415 kts | 311° |
| 2026-05-04 19:11 | 57.11527 | 9.85918 | 29032 ft | 415 kts | 311° |
| 2026-05-04 19:12 | 57.13561 | 9.82170 | 28605 ft | 411 kts | 311° |
| 2026-05-04 19:12 | 57.17558 | 9.74784 | 27491 ft | 403 kts | 310° |
| 2026-05-04 19:12 | 57.19516 | 9.71149 | 26960 ft | 398 kts | 310° |
| 2026-05-04 19:13 | 57.21459 | 9.67531 | 26432 ft | 394 kts | 310° |
| 2026-05-04 19:13 | 57.23379 | 9.63953 | 25909 ft | 390 kts | 310° |
| 2026-05-04 19:13 | 57.25278 | 9.60411 | 25399 ft | 387 kts | 310° |
| 2026-05-04 19:13 | 57.27160 | 9.56893 | 24903 ft | 383 kts | 310° |
| 2026-05-04 19:14 | 57.29026 | 9.53402 | 24418 ft | 379 kts | 310° |
| 2026-05-04 19:14 | 57.30868 | 9.49958 | 23967 ft | 375 kts | 309° |
| 2026-05-04 19:14 | 57.32696 | 9.46535 | 23468 ft | 372 kts | 309° |
| 2026-05-04 19:14 | 57.34504 | 9.43144 | 22879 ft | 368 kts | 309° |
| 2026-05-04 19:15 | 57.36292 | 9.39783 | 22297 ft | 365 kts | 309° |
| 2026-05-04 19:15 | 57.38045 | 9.36485 | 21741 ft | 362 kts | 309° |
| 2026-05-04 19:15 | 57.39936 | 9.33411 | 21192 ft | 365 kts | 320° |
| 2026-05-04 19:15 | 57.42064 | 9.30857 | 20648 ft | 363 kts | 321° |
| 2026-05-04 19:16 | 57.44188 | 9.28333 | 20108 ft | 361 kts | 322° |
| 2026-05-04 19:16 | 57.46293 | 9.25840 | 19599 ft | 358 kts | 322° |
| 2026-05-04 19:16 | 57.48387 | 9.23360 | 19089 ft | 355 kts | 322° |
| 2026-05-04 19:16 | 57.50459 | 9.20905 | 18604 ft | 353 kts | 322° |
| 2026-05-04 19:17 | 57.52522 | 9.18454 | 18121 ft | 350 kts | 322° |
| 2026-05-04 19:17 | 57.54564 | 9.16022 | 17578 ft | 348 kts | 322° |
| 2026-05-04 19:17 | 57.56598 | 9.13597 | 17045 ft | 346 kts | 322° |
| 2026-05-04 19:17 | 57.58611 | 9.11189 | 16571 ft | 342 kts | 322° |
| 2026-05-04 19:18 | 57.60603 | 9.08804 | 16204 ft | 338 kts | 321° |
| 2026-05-04 19:18 | 57.62568 | 9.06446 | 15766 ft | 334 kts | 321° |
| 2026-05-04 19:18 | 57.64516 | 9.04107 | 15358 ft | 331 kts | 321° |
| 2026-05-04 19:18 | 57.66436 | 9.01801 | 14959 ft | 327 kts | 321° |
| 2026-05-04 19:19 | 57.68340 | 8.99514 | 14559 ft | 323 kts | 321° |
| 2026-05-04 19:19 | 57.70218 | 8.97252 | 14160 ft | 320 kts | 321° |
| 2026-05-04 19:19 | 57.72084 | 8.94999 | 13764 ft | 318 kts | 321° |
| 2026-05-04 19:19 | 57.73930 | 8.92768 | 13337 ft | 315 kts | 321° |
| 2026-05-04 19:20 | 57.75738 | 8.90585 | 12947 ft | 311 kts | 321° |
| 2026-05-04 19:20 | 57.77564 | 8.88380 | 12648 ft | 305 kts | 321° |
| 2026-05-04 19:20 | 57.79314 | 8.86262 | 12280 ft | 302 kts | 321° |
| 2026-05-04 19:20 | 57.81072 | 8.84125 | 11897 ft | 301 kts | 321° |
| 2026-05-04 19:21 | 57.82824 | 8.81993 | 11507 ft | 299 kts | 321° |
| 2026-05-04 19:21 | 57.84560 | 8.79877 | 11105 ft | 297 kts | 321° |
| 2026-05-04 19:21 | 57.85729 | 8.78451 | 10845 ft | 296 kts | 321° |
| 2026-05-04 19:21 | 57.87986 | 8.75701 | 10535 ft | 286 kts | 321° |
| 2026-05-04 19:22 | 57.89621 | 8.73716 | 10398 ft | 275 kts | 321° |
| 2026-05-04 19:22 | 57.90700 | 8.72402 | 10224 ft | 272 kts | 320° |
| 2026-05-04 19:22 | 57.92274 | 8.70478 | 9989 ft | 268 kts | 320° |
| 2026-05-04 19:22 | 57.93827 | 8.68573 | 9851 ft | 267 kts | 320° |
| 2026-05-04 19:23 | 57.95382 | 8.66661 | 9721 ft | 266 kts | 320° |
| 2026-05-04 19:23 | 57.96931 | 8.64753 | 9572 ft | 266 kts | 320° |
| 2026-05-04 19:23 | 57.98484 | 8.62840 | 9238 ft | 266 kts | 320° |
| 2026-05-04 19:23 | 58.00025 | 8.60945 | 8832 ft | 264 kts | 320° |
| 2026-05-04 19:24 | 58.01560 | 8.59060 | 8455 ft | 263 kts | 320° |
| 2026-05-04 19:24 | 58.03069 | 8.57201 | 8036 ft | 262 kts | 320° |
| 2026-05-04 19:24 | 58.04603 | 8.55304 | 7664 ft | 260 kts | 320° |
| 2026-05-04 19:24 | 58.06093 | 8.53462 | 7298 ft | 258 kts | 321° |
| 2026-05-04 19:25 | 58.07594 | 8.51609 | 6917 ft | 257 kts | 321° |
| 2026-05-04 19:25 | 58.09088 | 8.49763 | 6509 ft | 256 kts | 321° |
| 2026-05-04 19:25 | 58.10568 | 8.47934 | 6105 ft | 255 kts | 321° |
| 2026-05-04 19:25 | 58.12041 | 8.46110 | 5729 ft | 252 kts | 321° |
| 2026-05-04 19:26 | 58.13500 | 8.44294 | 5334 ft | 250 kts | 321° |
| 2026-05-04 19:26 | 58.14953 | 8.42480 | 4934 ft | 249 kts | 321° |
| 2026-05-04 19:26 | 58.16393 | 8.40686 | 4531 ft | 247 kts | 321° |
| 2026-05-04 19:26 | 58.17817 | 8.38915 | 4144 ft | 241 kts | 321° |
| 2026-05-04 19:27 | 58.19188 | 8.37218 | 3882 ft | 231 kts | 321° |
| 2026-05-04 19:27 | 58.20536 | 8.35741 | 3814 ft | 217 kts | 326° |
| 2026-05-04 19:27 | 58.21817 | 8.34498 | 3704 ft | 198 kts | 325° |
| 2026-05-04 19:27 | 58.23005 | 8.33341 | 3615 ft | 184 kts | 325° |
| 2026-05-04 19:28 | 58.24083 | 8.32279 | 3534 ft | 170 kts | 322° |
| 2026-05-04 19:28 | 58.25051 | 8.31056 | 3277 ft | 166 kts | 315° |
| 2026-05-04 19:28 | 58.25907 | 8.29638 | 3078 ft | 159 kts | 309° |
| 2026-05-04 19:28 | 58.26631 | 8.28121 | 2836 ft | 152 kts | 303° |
| 2026-05-04 19:29 | 58.27221 | 8.26473 | 2620 ft | 149 kts | 294° |
| 2026-05-04 19:29 | 58.27586 | 8.24652 | 2422 ft | 147 kts | 282° |
| 2026-05-04 19:29 | 58.27719 | 8.22746 | 2221 ft | 144 kts | 271° |
| 2026-05-04 19:29 | 58.27620 | 8.20867 | 2028 ft | 142 kts | 259° |
| 2026-05-04 19:30 | 58.27310 | 8.19088 | 1838 ft | 142 kts | 248° |
| 2026-05-04 19:30 | 58.26797 | 8.17482 | 1639 ft | 143 kts | 237° |
| 2026-05-04 19:30 | 58.26107 | 8.16132 | 1403 ft | 140 kts | 225° |
| 2026-05-04 19:30 | 58.25311 | 8.15054 | 1126 ft | 141 kts | 219° |
| 2026-05-04 19:31 | 58.24511 | 8.13989 | 956 ft | 143 kts | 220° |
| 2026-05-04 19:31 | 58.23699 | 8.12908 | 778 ft | 140 kts | 221° |
| 2026-05-04 19:31 | 58.22910 | 8.11853 | 588 ft | 138 kts | 221° |
| 2026-05-04 19:31 | 58.22128 | 8.10801 | 401 ft | 137 kts | 220° |
| 2026-05-04 19:32 | 58.21350 | 8.09769 | 148 ft | 137 kts | 218° |
| 2026-05-04 19:32 | 58.20606 | 8.08776 | 59 ft | 120 kts | 215° |
| 2026-05-04 19:32 | 58.20142 | 8.08164 | 50 ft | 38 kts | 214° |
| 2026-05-04 19:32 | 58.19954 | 8.07916 | 50 ft | 31 kts | 215° |
| 2026-05-04 19:33 | 58.19806 | 8.07723 | 55 ft | 20 kts | 215° |
| 2026-05-04 19:33 | 58.19732 | 8.07625 | 56 ft | 10 kts | 214° |
| 2026-05-04 19:33 | 58.19712 | 8.07542 | 56 ft | 6 kts | 289° |
| 2026-05-04 19:33 | 58.19751 | 8.07480 | 56 ft | 8 kts | 332° |
| 2026-05-04 19:34 | 58.19798 | 8.07445 | 56 ft | 7 kts | 340° |
| 2026-05-04 19:34 | 58.19840 | 8.07418 | 57 ft | 6 kts | 341° |
| 2026-05-04 19:34 | 58.19875 | 8.07396 | 53 ft | 5 kts | 342° |
| 2026-05-04 19:34 | 58.19904 | 8.07378 | 56 ft | 4 kts | 341° |
| 2026-05-04 19:35 | 58.19945 | 8.07355 | 52 ft | 10 kts | 348° |
| 2026-05-04 19:35 | 58.20012 | 8.07390 | 50 ft | 9 kts | 31° |
| 2026-05-04 19:35 | 58.20048 | 8.07435 | 57 ft | 5 kts | 33° |
| 2026-05-04 19:35 | 58.20081 | 8.07474 | 54 ft | 6 kts | 32° |
| 2026-05-04 19:36 | 58.20124 | 8.07524 | 54 ft | 8 kts | 32° |
| 2026-05-04 19:36 | 58.20168 | 8.07535 | 56 ft | 6 kts | 311° |
| 2026-05-04 19:36 | 58.20182 | 8.07489 | 53 ft | 1 kts | 301° |
| 2026-05-04 19:36 | 58.20183 | 8.07486 | 53 ft | 0 kts | 300° |